createdAt,value
2023-03-14T00:01:57.510Z,24.72
2023-03-14T00:04:28.689Z,24.61
2023-03-14T00:07:01.680Z,24.44
2023-03-14T00:09:33.688Z,24.36
2023-03-14T00:12:08.882Z,24.39
2023-03-14T00:14:41.696Z,24.46
2023-03-14T00:17:12.894Z,24.44
2023-03-14T00:19:45.750Z,24.44
2023-03-14T00:22:16.905Z,24.31
2023-03-14T00:24:47.774Z,24.27
2023-03-14T00:27:19.109Z,24.30
2023-03-14T00:29:49.904Z,24.26
2023-03-14T00:32:21.075Z,24.23
2023-03-14T00:34:52.237Z,24.21
2023-03-14T00:37:24.526Z,24.17
2023-03-14T00:39:55.977Z,24.20
2023-03-14T00:42:28.968Z,24.13
2023-03-14T00:45:01.980Z,24.13
2023-03-14T00:47:34.672Z,24.06
2023-03-14T00:50:06.719Z,24.09
2023-03-14T00:52:38.433Z,24.02
2023-03-14T00:55:10.794Z,24.05
2023-03-14T00:57:43.092Z,24.06
2023-03-14T01:00:16.110Z,24.03
2023-03-14T01:02:47.272Z,23.99
2023-03-14T01:05:19.345Z,24.00
2023-03-14T01:08:10.100Z,24.00
2023-03-14T01:10:44.676Z,23.95
2023-03-14T01:13:17.305Z,23.96
2023-03-14T01:15:52.084Z,23.95
2023-03-14T01:18:24.636Z,23.98
2023-03-14T01:20:56.643Z,23.90
2023-03-14T01:23:27.277Z,23.96
2023-03-14T01:25:58.597Z,23.95
2023-03-14T01:28:29.205Z,23.96
2023-03-14T01:31:05.282Z,23.86
2023-03-14T01:33:35.556Z,23.72
2023-03-14T01:36:06.561Z,23.69
2023-03-14T01:38:42.368Z,23.68
2023-03-14T01:41:24.398Z,23.68
2023-03-14T01:43:56.506Z,23.68
2023-03-14T01:46:29.339Z,23.73
2023-03-14T01:49:29.356Z,23.79
2023-03-14T01:52:18.579Z,23.75
2023-03-14T01:54:54.663Z,23.76
2023-03-14T01:57:27.485Z,23.72
2023-03-14T02:00:03.416Z,23.62
2023-03-14T02:02:48.484Z,23.62
2023-03-14T02:05:25.519Z,23.66
2023-03-14T02:08:02.596Z,23.73
2023-03-14T02:10:41.495Z,23.76
2023-03-14T02:13:14.295Z,23.69
2023-03-14T02:16:01.572Z,23.59
2023-03-14T02:19:00.457Z,23.62
2023-03-14T02:21:43.034Z,23.61
2023-03-14T02:24:34.602Z,23.63
2023-03-14T02:27:12.338Z,23.55
2023-03-14T02:29:56.845Z,23.55
2023-03-14T02:32:30.004Z,23.58
2023-03-14T02:35:01.530Z,23.58
2023-03-14T02:37:44.237Z,23.58
2023-03-14T02:40:14.526Z,23.55
2023-03-14T02:42:45.873Z,23.55
2023-03-14T02:45:18.595Z,23.47
2023-03-14T02:47:57.174Z,23.45
2023-03-14T02:50:36.402Z,23.45
2023-03-14T02:53:07.256Z,23.44
2023-03-14T02:55:37.561Z,23.34
2023-03-14T02:58:13.550Z,23.41
2023-03-14T03:00:44.510Z,23.41
2023-03-14T03:03:16.085Z,23.37
2023-03-14T03:05:46.267Z,23.38
2023-03-14T03:08:16.307Z,23.45
2023-03-14T03:10:46.171Z,23.35
2023-03-14T03:13:16.723Z,23.37
2023-03-14T03:15:49.735Z,23.45
2023-03-14T03:18:21.584Z,23.40
2023-03-14T03:20:51.707Z,23.24
2023-03-14T03:23:21.500Z,23.22
2023-03-14T03:25:53.201Z,23.27
2023-03-14T03:28:23.607Z,23.18
2023-03-14T03:30:54.781Z,23.22
2023-03-14T03:33:26.821Z,23.24
2023-03-14T03:35:56.646Z,23.32
2023-03-14T03:38:32.002Z,23.32
2023-03-14T03:41:08.672Z,23.27
2023-03-14T03:43:38.833Z,23.20
2023-03-14T03:46:10.749Z,23.20
2023-03-14T03:48:40.670Z,23.11
2023-03-14T03:51:14.948Z,23.01
2023-03-14T03:53:45.902Z,23.04
2023-03-14T03:56:19.082Z,22.93
2023-03-14T03:58:49.109Z,22.89
2023-03-14T04:01:19.901Z,22.80
2023-03-14T04:03:55.593Z,22.77
2023-03-14T04:06:25.740Z,22.72
2023-03-14T04:08:58.147Z,22.64
2023-03-14T04:11:40.325Z,22.62
2023-03-14T04:14:22.563Z,22.57
2023-03-14T04:17:01.427Z,22.52
2023-03-14T04:19:32.672Z,22.49
2023-03-14T04:22:02.502Z,22.48
2023-03-14T04:24:37.546Z,22.46
2023-03-14T04:27:07.884Z,22.46
2023-03-14T04:29:37.948Z,22.45
2023-03-14T04:32:07.976Z,22.32
2023-03-14T04:34:44.060Z,22.36
2023-03-14T04:37:14.338Z,22.49
2023-03-14T04:39:47.091Z,22.51
2023-03-14T04:42:28.089Z,22.52
2023-03-14T04:44:58.012Z,22.57
2023-03-14T04:47:30.071Z,22.63
2023-03-14T04:50:00.617Z,22.57
2023-03-14T04:52:31.709Z,22.55
2023-03-14T04:55:03.132Z,22.57
2023-03-14T04:57:33.015Z,22.56
2023-03-14T05:00:02.696Z,22.53
2023-03-14T05:02:50.942Z,22.51
2023-03-14T05:05:35.098Z,22.52
2023-03-14T05:08:05.238Z,22.52
2023-03-14T05:10:59.289Z,22.55
2023-03-14T05:14:09.067Z,22.62
2023-03-14T05:17:02.274Z,22.60
2023-03-14T05:57:52.553Z,22.49
2023-03-14T06:00:46.411Z,22.53
2023-03-14T06:17:27.571Z,22.49
2023-03-14T06:20:12.824Z,22.43
2023-03-14T06:22:44.192Z,22.38
2023-03-14T06:25:16.096Z,22.41
2023-03-14T06:27:49.839Z,22.48
2023-03-14T06:30:20.084Z,22.55
2023-03-14T06:32:50.503Z,22.59
2023-03-14T06:35:21.380Z,22.72
2023-03-14T06:37:51.816Z,22.83
2023-03-14T06:40:21.771Z,22.87
2023-03-14T06:43:06.657Z,22.87
2023-03-14T06:45:38.761Z,22.87
2023-03-14T06:48:09.154Z,22.93
2023-03-14T06:50:52.480Z,22.97
2023-03-14T06:53:23.890Z,23.00
2023-03-14T06:55:54.428Z,23.01
2023-03-14T06:58:24.703Z,23.01
2023-03-14T07:00:56.829Z,23.06
2023-03-14T07:03:30.452Z,23.00
2023-03-14T07:06:02.155Z,22.97
2023-03-14T07:08:32.182Z,23.03
2023-03-14T07:11:03.459Z,23.04
2023-03-14T07:13:33.534Z,23.06
2023-03-14T07:16:08.672Z,22.99
2023-03-14T07:18:39.770Z,22.92
2023-03-14T07:21:14.226Z,22.93
2023-03-14T07:23:44.203Z,22.99
2023-03-14T07:26:15.642Z,23.01
2023-03-14T07:28:51.002Z,23.00
2023-03-14T07:31:23.636Z,23.03
2023-03-14T07:33:54.410Z,23.03
2023-03-14T07:36:25.875Z,23.00
2023-03-14T07:38:55.907Z,23.00
2023-03-14T07:41:37.445Z,22.99
2023-03-14T07:44:42.824Z,22.94
2023-03-14T07:47:12.949Z,22.96
2023-03-14T07:49:42.935Z,22.99
2023-03-14T07:52:12.495Z,23.00
2023-03-14T07:54:42.572Z,22.97
2023-03-14T07:57:12.642Z,22.94
2023-03-14T07:59:42.491Z,22.86
2023-03-14T08:02:15.612Z,22.82
2023-03-14T08:04:45.853Z,22.73
2023-03-14T08:07:15.741Z,22.76
2023-03-14T08:09:45.627Z,22.73
2023-03-14T08:12:15.722Z,22.74
2023-03-14T08:14:45.567Z,22.69
2023-03-14T08:17:15.350Z,22.63
2023-03-14T08:19:45.383Z,22.53
2023-03-14T08:22:16.010Z,22.41
2023-03-14T08:24:46.617Z,22.25
2023-03-14T08:27:18.059Z,22.24
2023-03-14T08:29:48.824Z,22.25
2023-03-14T08:32:18.842Z,22.24
2023-03-14T08:34:49.150Z,22.19
2023-03-14T08:37:26.221Z,22.14
2023-03-14T08:39:58.095Z,22.08
2023-03-14T08:42:27.914Z,22.09
2023-03-14T08:44:57.499Z,22.15
2023-03-14T08:47:27.746Z,22.11
2023-03-14T08:49:57.752Z,22.18
2023-03-14T08:52:27.660Z,22.22
2023-03-14T08:54:57.637Z,22.21
2023-03-14T08:57:29.681Z,22.12
2023-03-14T08:59:59.728Z,22.11
2023-03-14T09:02:29.490Z,22.01
2023-03-14T09:04:59.303Z,21.90
2023-03-14T09:07:29.938Z,21.94
2023-03-14T09:09:59.785Z,21.88
2023-03-14T09:12:29.790Z,21.85
2023-03-14T09:14:59.772Z,21.83
2023-03-14T09:17:29.828Z,21.85
2023-03-14T09:20:00.695Z,21.83
2023-03-14T09:22:30.764Z,21.81
2023-03-14T09:25:00.618Z,21.78
2023-03-14T09:27:30.507Z,21.73
2023-03-14T09:30:00.194Z,21.80
2023-03-14T09:32:29.807Z,21.90
2023-03-14T09:34:59.771Z,21.95
2023-03-14T09:37:29.780Z,21.94
2023-03-14T09:39:59.657Z,21.94
2023-03-14T09:42:30.878Z,21.94
2023-03-14T09:45:09.344Z,21.91
2023-03-14T09:47:46.325Z,21.97
2023-03-14T09:50:23.126Z,22.00
2023-03-14T09:52:57.870Z,22.00
2023-03-14T09:55:28.149Z,21.98
2023-03-14T09:58:02.635Z,22.06
2023-03-14T10:00:34.223Z,22.14
2023-03-14T10:03:16.338Z,22.19
2023-03-14T10:05:46.323Z,22.19
2023-03-14T10:08:16.861Z,22.26
2023-03-14T10:10:46.890Z,22.28
2023-03-14T10:13:29.817Z,22.24
2023-03-14T10:16:09.978Z,22.31
2023-03-14T10:18:39.783Z,22.36
2023-03-14T10:21:31.149Z,22.48
2023-03-14T10:24:10.436Z,22.53
2023-03-14T10:26:40.778Z,22.51
2023-03-14T10:29:15.213Z,22.53
2023-03-14T10:31:59.670Z,22.64
2023-03-14T10:34:40.550Z,22.77
2023-03-14T10:37:27.921Z,22.82
2023-03-14T10:40:07.669Z,22.87
2023-03-14T10:42:44.291Z,23.03
2023-03-14T10:45:42.334Z,23.13
2023-03-14T10:48:24.988Z,23.21
2023-03-14T10:50:57.766Z,23.32
2023-03-14T10:53:28.309Z,23.48
2023-03-14T10:55:59.334Z,23.61
2023-03-14T10:58:33.286Z,23.68
2023-03-14T11:01:24.643Z,23.86
2023-03-14T11:04:08.800Z,24.03
2023-03-14T11:06:50.862Z,24.24
2023-03-14T11:09:29.826Z,24.33
2023-03-14T11:12:23.544Z,24.43
2023-03-14T11:15:01.423Z,24.53
2023-03-14T11:17:44.965Z,24.68
2023-03-14T11:20:42.544Z,24.85
2023-03-14T11:23:23.381Z,25.18
2023-03-14T11:26:23.760Z,25.38
2023-03-14T11:29:01.220Z,25.58
2023-03-14T11:31:34.362Z,25.70
2023-03-14T11:34:14.384Z,25.98
2023-03-14T11:36:54.439Z,26.41
2023-03-14T11:39:26.638Z,26.92
2023-03-14T11:41:59.743Z,27.50
2023-03-14T11:44:35.085Z,27.48
2023-03-14T11:47:16.469Z,27.51
2023-03-14T11:50:31.825Z,27.78
2023-03-14T11:53:07.170Z,27.40
2023-03-14T11:55:44.551Z,27.26
2023-03-14T11:58:27.885Z,26.86
2023-03-14T12:01:00.245Z,26.22
2023-03-14T12:04:03.493Z,25.83
2023-03-14T12:06:48.264Z,26.05
2023-03-14T12:09:20.950Z,26.22
2023-03-14T12:11:58.695Z,26.10
2023-03-14T12:14:39.929Z,25.93
2023-03-14T12:17:44.424Z,26.16
2023-03-14T12:20:23.350Z,25.88
2023-03-14T12:23:15.281Z,25.76
2023-03-14T12:25:45.263Z,25.73
2023-03-14T12:28:33.356Z,25.71
2023-03-14T12:31:33.824Z,25.65
2023-03-14T12:34:23.684Z,25.70
2023-03-14T12:37:13.562Z,25.56
2023-03-14T12:40:19.805Z,25.74
2023-03-14T12:43:06.278Z,25.71
2023-03-14T12:45:37.661Z,25.93
2023-03-14T12:48:27.406Z,26.11
2023-03-14T12:51:06.090Z,26.04
2023-03-14T12:54:03.592Z,26.16
2023-03-14T12:56:52.898Z,26.07
2023-03-14T12:59:35.131Z,25.93
2023-03-14T13:02:11.572Z,26.04
2023-03-14T13:04:51.691Z,26.37
2023-03-14T13:07:39.181Z,26.75
2023-03-14T13:10:12.162Z,26.48
2023-03-14T13:12:53.582Z,26.38
2023-03-14T13:15:31.209Z,26.49
2023-03-14T13:18:29.818Z,26.49
2023-03-14T13:21:15.318Z,26.42
2023-03-14T13:24:06.886Z,26.18
2023-03-14T13:26:41.348Z,26.18
2023-03-14T13:29:24.108Z,26.32
2023-03-14T13:31:56.813Z,26.56
2023-03-14T13:34:37.332Z,26.55
2023-03-14T13:37:07.595Z,26.76
2023-03-14T13:39:38.387Z,26.95
2023-03-14T13:42:19.333Z,26.96
2023-03-14T13:44:50.439Z,26.90
2023-03-14T13:47:22.651Z,26.76
2023-03-14T13:49:53.411Z,26.79
2023-03-14T13:52:32.089Z,26.80
2023-03-14T13:55:05.406Z,27.14
2023-03-14T13:57:56.639Z,27.50
2023-03-14T14:00:28.991Z,27.59
2023-03-14T14:03:01.806Z,28.49
2023-03-14T14:05:34.507Z,29.35
2023-03-14T14:08:07.366Z,29.87
2023-03-14T14:10:39.868Z,30.37
2023-03-14T14:13:17.397Z,30.65
2023-03-14T14:15:51.144Z,30.37
2023-03-14T14:18:23.848Z,28.80
2023-03-14T14:20:54.028Z,28.19
2023-03-14T14:23:27.803Z,28.06
2023-03-14T14:26:02.397Z,27.57
2023-03-14T14:28:40.408Z,27.31
2023-03-14T14:31:25.268Z,27.47
2023-03-14T14:34:00.688Z,27.68
2023-03-14T14:36:46.832Z,27.74
2023-03-14T14:39:28.940Z,27.54
2023-03-14T14:41:58.961Z,27.36
2023-03-14T14:44:38.487Z,27.47
2023-03-14T14:47:08.602Z,27.23
2023-03-14T14:49:38.972Z,27.41
2023-03-14T14:52:20.790Z,27.99
2023-03-14T14:54:58.516Z,27.81
2023-03-14T14:57:42.330Z,27.92
2023-03-14T15:00:23.180Z,28.01
2023-03-14T15:02:55.789Z,28.39
2023-03-14T15:05:28.356Z,28.88
2023-03-14T15:07:59.462Z,29.35
2023-03-14T15:10:29.635Z,29.28
2023-03-14T15:12:59.520Z,29.31
2023-03-14T15:15:29.397Z,28.94
2023-03-14T15:17:59.219Z,29.34
2023-03-14T15:20:28.834Z,29.26
2023-03-14T15:22:58.929Z,29.00
2023-03-14T15:25:51.506Z,28.39
2023-03-14T15:28:26.896Z,29.15
2023-03-14T15:30:59.454Z,30.03
2023-03-14T15:33:31.053Z,30.23
2023-03-14T15:36:02.312Z,30.45
2023-03-14T15:38:32.757Z,30.57
2023-03-14T15:41:02.618Z,30.91
2023-03-14T15:43:32.435Z,31.23
2023-03-14T15:46:02.072Z,31.30
2023-03-14T15:48:31.925Z,31.23
2023-03-14T15:51:01.764Z,32.49
2023-03-14T15:53:31.709Z,33.68
2023-03-14T15:56:01.744Z,32.52
2023-03-14T15:58:31.591Z,32.68
2023-03-14T16:01:01.258Z,32.79
2023-03-14T16:03:31.792Z,32.87
2023-03-14T16:06:01.656Z,32.87
2023-03-14T16:08:31.957Z,32.90
2023-03-14T16:11:02.346Z,32.08
2023-03-14T16:13:32.183Z,30.82
2023-03-14T16:16:06.432Z,31.02
2023-03-14T16:18:38.842Z,30.83
2023-03-14T16:21:17.513Z,30.54
2023-03-14T16:23:48.126Z,30.88
2023-03-14T16:26:21.871Z,30.57
2023-03-14T16:28:51.928Z,30.24
2023-03-14T16:31:26.981Z,29.46
2023-03-14T16:33:56.980Z,29.43
2023-03-14T16:36:26.921Z,29.46
2023-03-14T16:38:56.946Z,29.15
2023-03-14T16:41:26.975Z,29.22
2023-03-14T16:43:57.522Z,29.43
2023-03-14T16:46:29.388Z,29.79
2023-03-14T16:49:00.938Z,29.83
2023-03-14T16:51:30.776Z,30.88
2023-03-14T16:54:00.447Z,32.72
2023-03-14T16:56:30.126Z,33.03
2023-03-14T16:58:59.970Z,32.80
2023-03-14T17:01:30.116Z,33.17
2023-03-14T17:04:00.178Z,31.36
2023-03-14T17:06:30.776Z,30.54
2023-03-14T17:09:01.269Z,29.86
2023-03-14T17:11:31.345Z,29.45
2023-03-14T17:14:05.113Z,29.49
2023-03-14T17:16:35.173Z,29.48
2023-03-14T17:19:05.010Z,29.36
2023-03-14T17:21:34.859Z,29.21
2023-03-14T17:24:04.734Z,29.48
2023-03-14T17:26:35.284Z,28.71
2023-03-14T17:29:05.233Z,27.36
2023-03-14T17:31:35.110Z,26.89
2023-03-14T17:34:04.951Z,26.76
2023-03-14T17:36:34.802Z,27.10
2023-03-14T17:39:05.730Z,27.17
2023-03-14T17:41:35.573Z,27.85
2023-03-14T17:44:05.176Z,29.24
2023-03-14T17:46:35.056Z,30.07
2023-03-14T17:49:04.866Z,30.64
2023-03-14T17:51:34.521Z,30.55
2023-03-14T17:54:04.162Z,30.81
2023-03-14T17:56:34.216Z,30.35
2023-03-14T17:59:04.125Z,29.72
2023-03-14T18:01:34.074Z,30.24
2023-03-14T18:04:04.111Z,31.27
2023-03-14T18:06:34.233Z,31.16
2023-03-14T18:09:06.122Z,32.25
2023-03-14T18:11:35.595Z,31.73
2023-03-14T18:14:08.768Z,30.33
2023-03-14T18:16:39.254Z,30.16
2023-03-14T18:19:09.084Z,29.72
2023-03-14T18:21:41.423Z,28.81
2023-03-14T18:24:11.704Z,28.47
2023-03-14T18:26:41.694Z,28.27
2023-03-14T18:29:14.557Z,28.47
2023-03-14T18:31:45.856Z,28.31
2023-03-14T18:34:15.810Z,27.95
2023-03-14T18:36:45.763Z,27.96
2023-03-14T18:39:15.513Z,28.56
2023-03-14T18:41:45.342Z,29.21
2023-03-14T18:44:14.947Z,29.51
2023-03-14T18:46:45.091Z,29.25
2023-03-14T18:49:15.130Z,29.07
2023-03-14T18:51:44.815Z,28.95
2023-03-14T18:54:14.759Z,28.77
2023-03-14T18:56:44.679Z,28.12
2023-03-14T18:59:15.182Z,27.64
2023-03-14T19:01:46.204Z,27.48
2023-03-14T19:04:16.266Z,26.92
2023-03-14T19:06:46.326Z,26.58
2023-03-14T19:09:18.167Z,26.71
2023-03-14T19:11:48.884Z,26.71
2023-03-14T19:14:21.379Z,26.38
2023-03-14T19:16:51.395Z,26.48
2023-03-14T19:19:21.073Z,26.41
2023-03-14T19:21:50.966Z,26.60
2023-03-14T19:24:21.764Z,26.78
2023-03-14T19:26:52.700Z,26.37
2023-03-14T19:29:24.724Z,26.41
2023-03-14T19:31:55.338Z,26.47
2023-03-14T19:34:25.467Z,26.20
2023-03-14T19:36:55.130Z,26.34
2023-03-14T19:39:25.131Z,27.23
2023-03-14T19:41:58.823Z,27.84
2023-03-14T19:44:28.675Z,27.95
2023-03-14T19:46:58.413Z,28.46
2023-03-14T19:49:29.701Z,28.97
2023-03-14T19:51:59.914Z,28.80
2023-03-14T19:54:30.185Z,28.01
2023-03-14T19:57:01.570Z,27.69
2023-03-14T19:59:31.736Z,27.26
2023-03-14T20:02:01.752Z,26.76
2023-03-14T20:04:31.640Z,26.71
2023-03-14T20:07:05.848Z,26.79
2023-03-14T20:09:35.915Z,26.71
2023-03-14T20:12:05.752Z,26.62
2023-03-14T20:14:35.984Z,26.76
2023-03-14T20:17:06.030Z,26.59
2023-03-14T20:19:35.925Z,26.44
2023-03-14T20:22:05.768Z,26.53
2023-03-14T20:24:35.839Z,26.71
2023-03-14T20:27:05.676Z,26.66
2023-03-14T20:29:35.695Z,26.53
2023-03-14T20:32:10.687Z,26.44
2023-03-14T20:34:41.284Z,26.31
2023-03-14T20:37:12.251Z,26.31
2023-03-14T20:39:42.700Z,26.39
2023-03-14T20:42:13.243Z,26.37
2023-03-14T20:44:43.180Z,26.35
2023-03-14T20:47:15.687Z,26.31
2023-03-14T20:49:45.756Z,26.05
2023-03-14T20:52:16.685Z,26.10
2023-03-14T20:54:47.360Z,26.17
2023-03-14T20:57:17.833Z,26.01
2023-03-14T20:59:47.891Z,25.88
2023-03-14T21:02:17.729Z,25.84
2023-03-14T21:04:47.457Z,25.66
2023-03-14T21:07:17.501Z,25.56
2023-03-14T21:09:47.369Z,25.46
2023-03-14T21:12:17.238Z,25.36
2023-03-14T21:14:47.088Z,25.29
2023-03-14T21:17:16.997Z,25.14
2023-03-14T21:19:46.828Z,25.29
2023-03-14T21:22:20.542Z,25.28
2023-03-14T21:24:50.371Z,25.38
2023-03-14T21:27:20.360Z,25.38
2023-03-14T21:29:50.205Z,25.28
2023-03-14T21:32:20.889Z,25.25
2023-03-14T21:34:50.880Z,25.23
2023-03-14T21:37:22.377Z,25.15
2023-03-14T21:39:52.338Z,25.04
2023-03-14T21:42:23.344Z,24.85
2023-03-14T21:44:53.585Z,24.81
2023-03-14T21:47:25.983Z,24.82
2023-03-14T21:49:55.938Z,24.75
2023-03-14T21:52:25.836Z,24.70
2023-03-14T21:54:55.710Z,24.54
2023-03-14T21:57:30.817Z,24.50
2023-03-14T22:00:01.865Z,24.49
2023-03-14T22:02:34.039Z,24.46
2023-03-14T22:05:04.275Z,24.34
2023-03-14T22:07:35.032Z,24.31
2023-03-14T22:10:05.269Z,24.31
2023-03-14T22:12:35.289Z,24.30
2023-03-14T22:15:06.660Z,24.30
2023-03-14T22:17:36.790Z,24.29
2023-03-14T22:20:11.413Z,24.14
2023-03-14T22:22:42.201Z,24.05
2023-03-14T22:25:12.061Z,23.96
2023-03-14T22:27:42.029Z,23.93
2023-03-14T22:30:12.699Z,23.89
2023-03-14T22:32:42.527Z,23.85
2023-03-14T22:35:12.578Z,23.81
2023-03-14T22:37:42.640Z,23.79
2023-03-14T22:40:13.168Z,23.79
2023-03-14T22:42:43.311Z,23.76
2023-03-14T22:45:13.188Z,23.72
2023-03-14T22:47:43.015Z,23.72
2023-03-14T22:50:13.456Z,23.69
2023-03-14T22:52:43.338Z,23.66
2023-03-14T22:55:13.230Z,23.63
2023-03-14T22:57:43.415Z,23.61
2023-03-14T23:00:15.927Z,23.55
2023-03-14T23:02:46.040Z,23.51
2023-03-14T23:05:15.908Z,23.47
2023-03-14T23:07:46.695Z,23.41
2023-03-14T23:10:16.752Z,23.32
2023-03-14T23:12:49.068Z,23.31
2023-03-14T23:15:20.100Z,23.32
2023-03-14T23:17:49.909Z,23.30
2023-03-14T23:20:19.679Z,23.30
2023-03-14T23:22:49.329Z,23.22
2023-03-14T23:25:19.784Z,23.21
2023-03-14T23:27:49.597Z,23.18
2023-03-14T23:30:19.308Z,23.17
2023-03-14T23:32:49.425Z,23.13
2023-03-14T23:35:19.387Z,23.10
2023-03-14T23:37:50.390Z,23.07
2023-03-14T23:40:21.519Z,23.03
2023-03-14T23:42:51.602Z,23.03
2023-03-14T23:45:21.651Z,23.00
2023-03-14T23:47:51.674Z,22.97
2023-03-14T23:50:21.759Z,22.94
2023-03-14T23:52:51.626Z,22.93
2023-03-14T23:55:21.434Z,22.93
2023-03-14T23:57:51.430Z,22.90
